sensor_id;sensor_type;location;lat;lon;timestamp;temperature;humidity
12123;DHT22;6125;59.628;17.852;2024-01-10T00:02:18;1.40;99.90
12123;DHT22;6125;59.628;17.852;2024-01-10T00:04:45;1.50;99.90
12123;DHT22;6125;59.628;17.852;2024-01-10T00:07:12;1.50;99.90
12123;DHT22;6125;59.628;17.852;2024-01-10T00:09:39;1.50;99.90
12123;DHT22;6125;59.628;17.852;2024-01-10T00:12:07;1.50;99.90
12123;DHT22;6125;59.628;17.852;2024-01-10T00:14:35;1.50;99.90
12123;DHT22;6125;59.628;17.852;2024-01-10T00:17:03;1.50;99.90
12123;DHT22;6125;59.628;17.852;2024-01-10T00:19:30;1.50;99.90
12123;DHT22;6125;59.628;17.852;2024-01-10T00:21:57;1.50;99.90
12123;DHT22;6125;59.628;17.852;2024-01-10T00:24:24;1.50;99.90
12123;DHT22;6125;59.628;17.852;2024-01-10T00:26:52;1.50;99.90
12123;DHT22;6125;59.628;17.852;2024-01-10T00:29:19;1.50;99.90
12123;DHT22;6125;59.628;17.852;2024-01-10T00:31:47;1.40;99.90
12123;DHT22;6125;59.628;17.852;2024-01-10T00:34:15;1.40;99.90
12123;DHT22;6125;59.628;17.852;2024-01-10T00:36:42;1.40;99.90
12123;DHT22;6125;59.628;17.852;2024-01-10T00:39:09;1.40;99.90
12123;DHT22;6125;59.628;17.852;2024-01-10T00:41:36;1.30;99.90
12123;DHT22;6125;59.628;17.852;2024-01-10T00:44:03;1.30;99.90
12123;DHT22;6125;59.628;17.852;2024-01-10T00:46:30;1.30;99.90
12123;DHT22;6125;59.628;17.852;2024-01-10T00:48:59;1.30;99.90
12123;DHT22;6125;59.628;17.852;2024-01-10T00:51:26;1.30;99.90
12123;DHT22;6125;59.628;17.852;2024-01-10T00:53:53;1.20;99.90
12123;DHT22;6125;59.628;17.852;2024-01-10T00:56:20;1.20;99.90
12123;DHT22;6125;59.628;17.852;2024-01-10T00:58:47;1.20;99.90
12123;DHT22;6125;59.628;17.852;2024-01-10T01:01:14;1.20;99.90
12123;DHT22;6125;59.628;17.852;2024-01-10T01:03:42;1.20;99.90
12123;DHT22;6125;59.628;17.852;2024-01-10T01:06:10;1.20;99.90
12123;DHT22;6125;59.628;17.852;2024-01-10T01:08:37;1.20;99.90
12123;DHT22;6125;59.628;17.852;2024-01-10T01:11:04;1.20;99.90
12123;DHT22;6125;59.628;17.852;2024-01-10T01:13:32;1.20;99.90
12123;DHT22;6125;59.628;17.852;2024-01-10T01:15:59;1.20;99.90
12123;DHT22;6125;59.628;17.852;2024-01-10T01:18:26;1.20;99.90
12123;DHT22;6125;59.628;17.852;2024-01-10T01:20:53;1.20;99.90
12123;DHT22;6125;59.628;17.852;2024-01-10T01:23:22;1.20;99.90
12123;DHT22;6125;59.628;17.852;2024-01-10T01:25:49;1.20;99.90
12123;DHT22;6125;59.628;17.852;2024-01-10T01:28:16;1.20;99.90
12123;DHT22;6125;59.628;17.852;2024-01-10T01:30:43;1.30;99.90
12123;DHT22;6125;59.628;17.852;2024-01-10T01:33:10;1.30;99.90
12123;DHT22;6125;59.628;17.852;2024-01-10T01:35:38;1.30;99.90
12123;DHT22;6125;59.628;17.852;2024-01-10T01:38:05;1.30;99.90
12123;DHT22;6125;59.628;17.852;2024-01-10T01:40:33;1.30;99.90
12123;DHT22;6125;59.628;17.852;2024-01-10T01:43:00;1.30;99.90
12123;DHT22;6125;59.628;17.852;2024-01-10T01:45:27;1.30;99.90
12123;DHT22;6125;59.628;17.852;2024-01-10T01:47:55;1.30;99.90
12123;DHT22;6125;59.628;17.852;2024-01-10T01:50:22;1.30;99.90
12123;DHT22;6125;59.628;17.852;2024-01-10T01:52:50;1.30;99.90
12123;DHT22;6125;59.628;17.852;2024-01-10T01:55:17;1.30;99.90
12123;DHT22;6125;59.628;17.852;2024-01-10T01:57:46;1.30;99.90
12123;DHT22;6125;59.628;17.852;2024-01-10T02:00:13;1.30;99.90
12123;DHT22;6125;59.628;17.852;2024-01-10T02:02:40;1.30;99.90
12123;DHT22;6125;59.628;17.852;2024-01-10T02:05:08;1.20;99.90
12123;DHT22;6125;59.628;17.852;2024-01-10T02:07:35;1.20;99.90
12123;DHT22;6125;59.628;17.852;2024-01-10T02:10:03;1.30;99.90
12123;DHT22;6125;59.628;17.852;2024-01-10T02:12:30;1.30;99.90
12123;DHT22;6125;59.628;17.852;2024-01-10T02:14:59;1.30;99.90
12123;DHT22;6125;59.628;17.852;2024-01-10T02:17:26;1.20;99.90
12123;DHT22;6125;59.628;17.852;2024-01-10T02:20:08;1.30;99.90
12123;DHT22;6125;59.628;17.852;2024-01-10T02:22:35;1.30;99.90
12123;DHT22;6125;59.628;17.852;2024-01-10T02:25:04;1.30;99.90
12123;DHT22;6125;59.628;17.852;2024-01-10T02:27:32;1.30;99.90
12123;DHT22;6125;59.628;17.852;2024-01-10T02:30:02;1.30;99.90
12123;DHT22;6125;59.628;17.852;2024-01-10T02:32:30;1.30;99.90
12123;DHT22;6125;59.628;17.852;2024-01-10T02:34:57;1.30;99.90
12123;DHT22;6125;59.628;17.852;2024-01-10T02:37:24;1.30;99.90
12123;DHT22;6125;59.628;17.852;2024-01-10T02:39:52;1.30;99.90
12123;DHT22;6125;59.628;17.852;2024-01-10T02:42:20;1.20;99.90
12123;DHT22;6125;59.628;17.852;2024-01-10T02:44:47;1.30;99.90
12123;DHT22;6125;59.628;17.852;2024-01-10T02:47:15;1.30;99.90
12123;DHT22;6125;59.628;17.852;2024-01-10T02:49:42;1.30;99.90
12123;DHT22;6125;59.628;17.852;2024-01-10T02:52:09;1.20;99.90
12123;DHT22;6125;59.628;17.852;2024-01-10T02:54:36;1.20;99.90
12123;DHT22;6125;59.628;17.852;2024-01-10T02:57:03;1.20;99.90
12123;DHT22;6125;59.628;17.852;2024-01-10T02:59:32;1.20;99.90
12123;DHT22;6125;59.628;17.852;2024-01-10T03:01:59;1.10;99.90
12123;DHT22;6125;59.628;17.852;2024-01-10T03:04:26;1.10;99.90
12123;DHT22;6125;59.628;17.852;2024-01-10T03:06:53;1.10;99.90
12123;DHT22;6125;59.628;17.852;2024-01-10T03:09:20;1.10;99.90
12123;DHT22;6125;59.628;17.852;2024-01-10T03:11:47;1.10;99.90
12123;DHT22;6125;59.628;17.852;2024-01-10T03:14:14;1.10;99.90
12123;DHT22;6125;59.628;17.852;2024-01-10T03:16:43;1.10;99.90
12123;DHT22;6125;59.628;17.852;2024-01-10T03:19:11;1.10;99.90
12123;DHT22;6125;59.628;17.852;2024-01-10T03:21:38;1.10;99.90
12123;DHT22;6125;59.628;17.852;2024-01-10T03:24:06;1.10;99.90
12123;DHT22;6125;59.628;17.852;2024-01-10T03:26:33;1.00;99.90
12123;DHT22;6125;59.628;17.852;2024-01-10T03:29:01;1.00;99.90
12123;DHT22;6125;59.628;17.852;2024-01-10T03:31:29;1.00;99.90
12123;DHT22;6125;59.628;17.852;2024-01-10T03:33:58;1.00;99.90
12123;DHT22;6125;59.628;17.852;2024-01-10T03:36:25;1.00;99.90
12123;DHT22;6125;59.628;17.852;2024-01-10T03:38:52;1.00;99.90
12123;DHT22;6125;59.628;17.852;2024-01-10T03:41:20;1.00;99.90
12123;DHT22;6125;59.628;17.852;2024-01-10T03:43:47;1.00;99.90
12123;DHT22;6125;59.628;17.852;2024-01-10T03:46:16;1.00;99.90
12123;DHT22;6125;59.628;17.852;2024-01-10T03:48:43;1.00;99.90
12123;DHT22;6125;59.628;17.852;2024-01-10T03:51:16;1.00;99.90
12123;DHT22;6125;59.628;17.852;2024-01-10T03:53:44;1.00;99.90
12123;DHT22;6125;59.628;17.852;2024-01-10T03:56:11;1.00;99.90
12123;DHT22;6125;59.628;17.852;2024-01-10T03:58:38;0.90;99.90
12123;DHT22;6125;59.628;17.852;2024-01-10T04:01:06;0.90;99.90
12123;DHT22;6125;59.628;17.852;2024-01-10T04:03:33;0.90;99.90
12123;DHT22;6125;59.628;17.852;2024-01-10T04:06:00;0.90;99.90
12123;DHT22;6125;59.628;17.852;2024-01-10T04:08:29;0.90;99.90
12123;DHT22;6125;59.628;17.852;2024-01-10T04:10:56;0.90;99.90
12123;DHT22;6125;59.628;17.852;2024-01-10T04:13:24;0.90;99.90
12123;DHT22;6125;59.628;17.852;2024-01-10T04:15:51;0.90;99.90
12123;DHT22;6125;59.628;17.852;2024-01-10T04:18:18;0.80;99.90
12123;DHT22;6125;59.628;17.852;2024-01-10T04:20:45;0.80;99.90
12123;DHT22;6125;59.628;17.852;2024-01-10T04:23:12;0.80;99.90
12123;DHT22;6125;59.628;17.852;2024-01-10T04:25:41;0.80;99.90
12123;DHT22;6125;59.628;17.852;2024-01-10T04:28:08;0.80;99.90
12123;DHT22;6125;59.628;17.852;2024-01-10T04:30:35;0.70;99.90
12123;DHT22;6125;59.628;17.852;2024-01-10T04:33:02;0.70;99.90
12123;DHT22;6125;59.628;17.852;2024-01-10T04:35:30;0.70;99.90
12123;DHT22;6125;59.628;17.852;2024-01-10T04:37:57;0.70;99.90
12123;DHT22;6125;59.628;17.852;2024-01-10T04:40:24;0.60;99.90
12123;DHT22;6125;59.628;17.852;2024-01-10T04:42:53;0.60;99.90
12123;DHT22;6125;59.628;17.852;2024-01-10T04:45:20;0.60;99.90
12123;DHT22;6125;59.628;17.852;2024-01-10T04:47:47;0.60;99.90
12123;DHT22;6125;59.628;17.852;2024-01-10T04:50:14;0.60;99.90
12123;DHT22;6125;59.628;17.852;2024-01-10T04:52:42;0.50;99.90
12123;DHT22;6125;59.628;17.852;2024-01-10T04:55:09;0.50;99.90
12123;DHT22;6125;59.628;17.852;2024-01-10T04:57:36;0.50;99.90
12123;DHT22;6125;59.628;17.852;2024-01-10T05:00:06;0.50;99.90
12123;DHT22;6125;59.628;17.852;2024-01-10T05:02:33;0.50;99.90
12123;DHT22;6125;59.628;17.852;2024-01-10T05:05:00;0.60;99.90
12123;DHT22;6125;59.628;17.852;2024-01-10T05:07:29;0.60;99.90
12123;DHT22;6125;59.628;17.852;2024-01-10T05:09:56;0.60;99.90
12123;DHT22;6125;59.628;17.852;2024-01-10T05:12:24;0.60;99.90
12123;DHT22;6125;59.628;17.852;2024-01-10T05:14:51;0.60;99.90
12123;DHT22;6125;59.628;17.852;2024-01-10T05:17:20;0.60;99.90
12123;DHT22;6125;59.628;17.852;2024-01-10T05:19:47;0.60;99.90
12123;DHT22;6125;59.628;17.852;2024-01-10T05:22:14;0.60;99.90
12123;DHT22;6125;59.628;17.852;2024-01-10T05:24:42;0.60;99.90
12123;DHT22;6125;59.628;17.852;2024-01-10T05:27:09;0.60;99.90
12123;DHT22;6125;59.628;17.852;2024-01-10T05:29:37;0.60;99.90
12123;DHT22;6125;59.628;17.852;2024-01-10T05:32:05;0.60;99.90
12123;DHT22;6125;59.628;17.852;2024-01-10T05:34:33;0.60;99.90
12123;DHT22;6125;59.628;17.852;2024-01-10T05:37:00;0.50;99.90
12123;DHT22;6125;59.628;17.852;2024-01-10T05:39:27;0.50;99.90
12123;DHT22;6125;59.628;17.852;2024-01-10T05:41:55;0.50;99.90
12123;DHT22;6125;59.628;17.852;2024-01-10T05:44:22;0.50;99.90
12123;DHT22;6125;59.628;17.852;2024-01-10T05:46:49;0.40;99.90
12123;DHT22;6125;59.628;17.852;2024-01-10T05:49:17;0.40;99.90
12123;DHT22;6125;59.628;17.852;2024-01-10T05:51:46;0.40;99.90
12123;DHT22;6125;59.628;17.852;2024-01-10T05:54:13;0.40;99.90
12123;DHT22;6125;59.628;17.852;2024-01-10T05:56:41;0.30;99.90
12123;DHT22;6125;59.628;17.852;2024-01-10T05:59:08;0.30;99.90
12123;DHT22;6125;59.628;17.852;2024-01-10T06:01:37;0.30;99.90
12123;DHT22;6125;59.628;17.852;2024-01-10T06:04:05;0.30;99.90
12123;DHT22;6125;59.628;17.852;2024-01-10T06:06:32;0.20;99.90
12123;DHT22;6125;59.628;17.852;2024-01-10T06:09:07;0.20;99.90
12123;DHT22;6125;59.628;17.852;2024-01-10T06:11:41;0.20;99.90
12123;DHT22;6125;59.628;17.852;2024-01-10T06:14:14;0.20;99.90
12123;DHT22;6125;59.628;17.852;2024-01-10T06:16:41;0.20;99.90
12123;DHT22;6125;59.628;17.852;2024-01-10T06:19:09;0.10;99.90
12123;DHT22;6125;59.628;17.852;2024-01-10T06:21:37;0.10;99.90
12123;DHT22;6125;59.628;17.852;2024-01-10T06:24:05;0.10;99.90
12123;DHT22;6125;59.628;17.852;2024-01-10T06:26:33;0.00;99.90
12123;DHT22;6125;59.628;17.852;2024-01-10T06:29:00;0.00;99.90
12123;DHT22;6125;59.628;17.852;2024-01-10T06:31:28;0.00;99.90
12123;DHT22;6125;59.628;17.852;2024-01-10T06:33:55;-0.10;99.90
12123;DHT22;6125;59.628;17.852;2024-01-10T06:36:22;-0.10;99.90
12123;DHT22;6125;59.628;17.852;2024-01-10T06:38:49;-0.10;99.90
12123;DHT22;6125;59.628;17.852;2024-01-10T06:41:16;-0.10;99.90
12123;DHT22;6125;59.628;17.852;2024-01-10T06:43:45;-0.10;99.90
12123;DHT22;6125;59.628;17.852;2024-01-10T06:46:12;-0.10;99.90
12123;DHT22;6125;59.628;17.852;2024-01-10T06:48:39;-0.10;99.90
12123;DHT22;6125;59.628;17.852;2024-01-10T06:51:10;-0.10;99.90
12123;DHT22;6125;59.628;17.852;2024-01-10T06:53:38;-0.20;99.90
12123;DHT22;6125;59.628;17.852;2024-01-10T06:56:06;-0.20;99.90
12123;DHT22;6125;59.628;17.852;2024-01-10T06:58:35;-0.20;99.90
12123;DHT22;6125;59.628;17.852;2024-01-10T07:01:04;-0.20;99.90
12123;DHT22;6125;59.628;17.852;2024-01-10T07:03:31;-0.20;99.90
12123;DHT22;6125;59.628;17.852;2024-01-10T07:06:00;-0.20;99.90
12123;DHT22;6125;59.628;17.852;2024-01-10T07:08:27;-0.20;99.90
12123;DHT22;6125;59.628;17.852;2024-01-10T07:10:56;-0.30;99.90
12123;DHT22;6125;59.628;17.852;2024-01-10T07:13:23;-0.30;99.90
12123;DHT22;6125;59.628;17.852;2024-01-10T07:15:51;-0.30;99.90
12123;DHT22;6125;59.628;17.852;2024-01-10T07:18:20;-0.30;99.90
12123;DHT22;6125;59.628;17.852;2024-01-10T07:20:47;-0.30;99.90
12123;DHT22;6125;59.628;17.852;2024-01-10T07:23:15;-0.30;99.90
12123;DHT22;6125;59.628;17.852;2024-01-10T07:25:42;-0.40;99.90
12123;DHT22;6125;59.628;17.852;2024-01-10T07:28:09;-0.40;99.90
12123;DHT22;6125;59.628;17.852;2024-01-10T07:30:36;-0.40;99.90
12123;DHT22;6125;59.628;17.852;2024-01-10T07:33:04;-0.40;99.90
12123;DHT22;6125;59.628;17.852;2024-01-10T07:35:33;-0.40;99.90
12123;DHT22;6125;59.628;17.852;2024-01-10T07:38:01;-0.40;99.90
12123;DHT22;6125;59.628;17.852;2024-01-10T07:40:28;-0.40;99.90
12123;DHT22;6125;59.628;17.852;2024-01-10T07:42:56;-0.40;99.90
12123;DHT22;6125;59.628;17.852;2024-01-10T07:45:23;-0.40;99.90
12123;DHT22;6125;59.628;17.852;2024-01-10T07:47:50;-0.40;99.90
12123;DHT22;6125;59.628;17.852;2024-01-10T07:50:17;-0.50;99.90
12123;DHT22;6125;59.628;17.852;2024-01-10T07:52:46;-0.50;99.90
12123;DHT22;6125;59.628;17.852;2024-01-10T07:55:13;-0.50;99.90
12123;DHT22;6125;59.628;17.852;2024-01-10T07:57:41;-0.50;99.90
12123;DHT22;6125;59.628;17.852;2024-01-10T08:00:09;-0.50;99.90
12123;DHT22;6125;59.628;17.852;2024-01-10T08:02:37;-0.50;99.90
12123;DHT22;6125;59.628;17.852;2024-01-10T08:05:05;-0.40;99.90
12123;DHT22;6125;59.628;17.852;2024-01-10T08:07:34;-0.40;99.90
12123;DHT22;6125;59.628;17.852;2024-01-10T08:10:04;-0.40;99.90
12123;DHT22;6125;59.628;17.852;2024-01-10T08:12:32;-0.40;99.90
12123;DHT22;6125;59.628;17.852;2024-01-10T08:14:59;-0.30;99.90
12123;DHT22;6125;59.628;17.852;2024-01-10T08:17:26;-0.30;99.90
12123;DHT22;6125;59.628;17.852;2024-01-10T08:19:53;-0.30;99.90
12123;DHT22;6125;59.628;17.852;2024-01-10T08:22:20;-0.30;99.90
12123;DHT22;6125;59.628;17.852;2024-01-10T08:24:48;-0.30;99.90
12123;DHT22;6125;59.628;17.852;2024-01-10T08:27:17;-0.30;99.90
12123;DHT22;6125;59.628;17.852;2024-01-10T08:29:44;-0.30;99.90
12123;DHT22;6125;59.628;17.852;2024-01-10T08:32:11;-0.30;99.90
12123;DHT22;6125;59.628;17.852;2024-01-10T08:34:38;-0.20;99.90
12123;DHT22;6125;59.628;17.852;2024-01-10T08:37:05;-0.30;99.90
12123;DHT22;6125;59.628;17.852;2024-01-10T08:39:33;-0.30;99.90
12123;DHT22;6125;59.628;17.852;2024-01-10T08:42:00;-0.30;99.90
12123;DHT22;6125;59.628;17.852;2024-01-10T08:44:29;-0.30;99.90
12123;DHT22;6125;59.628;17.852;2024-01-10T08:46:56;-0.30;99.90
12123;DHT22;6125;59.628;17.852;2024-01-10T08:49:23;-0.30;99.90
12123;DHT22;6125;59.628;17.852;2024-01-10T08:51:50;-0.20;99.90
12123;DHT22;6125;59.628;17.852;2024-01-10T08:54:19;-0.20;99.90
12123;DHT22;6125;59.628;17.852;2024-01-10T08:56:48;-0.20;99.90
12123;DHT22;6125;59.628;17.852;2024-01-10T08:59:15;-0.10;99.90
12123;DHT22;6125;59.628;17.852;2024-01-10T09:01:44;-0.10;99.90
12123;DHT22;6125;59.628;17.852;2024-01-10T09:04:11;-0.10;99.90
12123;DHT22;6125;59.628;17.852;2024-01-10T09:06:39;0.00;99.90
12123;DHT22;6125;59.628;17.852;2024-01-10T09:09:06;0.00;99.90
12123;DHT22;6125;59.628;17.852;2024-01-10T09:11:33;0.10;99.90
12123;DHT22;6125;59.628;17.852;2024-01-10T09:14:01;0.10;99.90
12123;DHT22;6125;59.628;17.852;2024-01-10T09:16:28;0.20;99.90
12123;DHT22;6125;59.628;17.852;2024-01-10T09:18:56;0.20;99.90
12123;DHT22;6125;59.628;17.852;2024-01-10T09:21:24;0.30;99.90
12123;DHT22;6125;59.628;17.852;2024-01-10T09:23:52;0.30;99.90
12123;DHT22;6125;59.628;17.852;2024-01-10T09:26:19;0.40;99.90
12123;DHT22;6125;59.628;17.852;2024-01-10T09:28:46;0.40;99.90
12123;DHT22;6125;59.628;17.852;2024-01-10T09:31:13;0.50;99.90
12123;DHT22;6125;59.628;17.852;2024-01-10T09:33:41;0.50;99.90
12123;DHT22;6125;59.628;17.852;2024-01-10T09:36:10;0.60;99.90
12123;DHT22;6125;59.628;17.852;2024-01-10T09:38:37;0.60;99.90
12123;DHT22;6125;59.628;17.852;2024-01-10T09:41:05;0.60;99.90
12123;DHT22;6125;59.628;17.852;2024-01-10T09:43:32;0.70;99.90
12123;DHT22;6125;59.628;17.852;2024-01-10T09:46:01;0.70;99.90
12123;DHT22;6125;59.628;17.852;2024-01-10T09:48:29;0.70;99.90
12123;DHT22;6125;59.628;17.852;2024-01-10T09:50:57;0.80;99.90
12123;DHT22;6125;59.628;17.852;2024-01-10T09:53:26;0.80;99.90
12123;DHT22;6125;59.628;17.852;2024-01-10T09:55:53;0.90;99.90
12123;DHT22;6125;59.628;17.852;2024-01-10T09:58:23;1.00;99.90
12123;DHT22;6125;59.628;17.852;2024-01-10T10:00:49;1.00;99.90
12123;DHT22;6125;59.628;17.852;2024-01-10T10:03:17;1.10;99.90
12123;DHT22;6125;59.628;17.852;2024-01-10T10:05:45;1.20;99.90
12123;DHT22;6125;59.628;17.852;2024-01-10T10:08:13;1.20;99.90
12123;DHT22;6125;59.628;17.852;2024-01-10T10:10:48;1.30;99.90
12123;DHT22;6125;59.628;17.852;2024-01-10T10:13:24;1.40;99.90
12123;DHT22;6125;59.628;17.852;2024-01-10T10:15:59;1.40;99.90
12123;DHT22;6125;59.628;17.852;2024-01-10T10:18:26;1.50;99.90
12123;DHT22;6125;59.628;17.852;2024-01-10T10:21:07;1.60;99.90
12123;DHT22;6125;59.628;17.852;2024-01-10T10:23:37;1.70;99.90
12123;DHT22;6125;59.628;17.852;2024-01-10T10:26:13;1.80;99.90
12123;DHT22;6125;59.628;17.852;2024-01-10T10:28:46;2.00;99.90
12123;DHT22;6125;59.628;17.852;2024-01-10T10:31:13;2.10;99.90
12123;DHT22;6125;59.628;17.852;2024-01-10T10:33:42;2.30;99.90
12123;DHT22;6125;59.628;17.852;2024-01-10T10:36:09;2.50;99.90
12123;DHT22;6125;59.628;17.852;2024-01-10T10:38:36;2.70;99.90
12123;DHT22;6125;59.628;17.852;2024-01-10T10:41:05;2.90;99.90
12123;DHT22;6125;59.628;17.852;2024-01-10T10:43:35;3.10;99.90
12123;DHT22;6125;59.628;17.852;2024-01-10T10:46:04;3.30;99.90
12123;DHT22;6125;59.628;17.852;2024-01-10T10:48:33;3.40;99.90
12123;DHT22;6125;59.628;17.852;2024-01-10T10:51:04;3.50;99.90
12123;DHT22;6125;59.628;17.852;2024-01-10T10:53:34;3.60;99.90
12123;DHT22;6125;59.628;17.852;2024-01-10T10:56:03;3.70;99.90
12123;DHT22;6125;59.628;17.852;2024-01-10T10:58:38;3.90;99.90
12123;DHT22;6125;59.628;17.852;2024-01-10T11:01:07;3.90;99.90
12123;DHT22;6125;59.628;17.852;2024-01-10T11:03:37;3.90;99.90
12123;DHT22;6125;59.628;17.852;2024-01-10T11:06:06;3.90;99.90
12123;DHT22;6125;59.628;17.852;2024-01-10T11:08:35;3.90;99.90
12123;DHT22;6125;59.628;17.852;2024-01-10T11:11:05;3.90;99.90
12123;DHT22;6125;59.628;17.852;2024-01-10T11:13:54;3.80;99.90
12123;DHT22;6125;59.628;17.852;2024-01-10T11:19:51;3.70;99.90
12123;DHT22;6125;59.628;17.852;2024-01-10T11:25:26;3.60;99.90
12123;DHT22;6125;59.628;17.852;2024-01-10T11:27:55;3.60;99.90
12123;DHT22;6125;59.628;17.852;2024-01-10T11:30:37;3.50;99.90
12123;DHT22;6125;59.628;17.852;2024-01-10T11:33:23;3.50;99.90
12123;DHT22;6125;59.628;17.852;2024-01-10T11:36:06;3.40;99.90
12123;DHT22;6125;59.628;17.852;2024-01-10T11:38:45;3.40;99.90
12123;DHT22;6125;59.628;17.852;2024-01-10T11:41:21;3.30;99.90
12123;DHT22;6125;59.628;17.852;2024-01-10T11:46:56;3.20;99.90
12123;DHT22;6125;59.628;17.852;2024-01-10T11:49:24;3.10;99.90
12123;DHT22;6125;59.628;17.852;2024-01-10T11:51:54;3.10;99.90
12123;DHT22;6125;59.628;17.852;2024-01-10T11:54:42;3.00;99.90
12123;DHT22;6125;59.628;17.852;2024-01-10T11:57:11;3.00;99.90
12123;DHT22;6125;59.628;17.852;2024-01-10T11:59:38;2.90;99.90
12123;DHT22;6125;59.628;17.852;2024-01-10T12:02:07;2.90;99.90
12123;DHT22;6125;59.628;17.852;2024-01-10T12:04:35;2.80;99.90
12123;DHT22;6125;59.628;17.852;2024-01-10T12:07:03;2.80;99.90
12123;DHT22;6125;59.628;17.852;2024-01-10T12:09:30;2.80;99.90
12123;DHT22;6125;59.628;17.852;2024-01-10T12:11:58;2.70;99.90
12123;DHT22;6125;59.628;17.852;2024-01-10T12:14:26;2.70;99.90
12123;DHT22;6125;59.628;17.852;2024-01-10T12:16:54;2.60;99.90
12123;DHT22;6125;59.628;17.852;2024-01-10T12:19:23;2.60;99.90
12123;DHT22;6125;59.628;17.852;2024-01-10T12:21:50;2.50;99.90
12123;DHT22;6125;59.628;17.852;2024-01-10T12:24:18;2.50;99.90
12123;DHT22;6125;59.628;17.852;2024-01-10T12:26:45;2.50;99.90
12123;DHT22;6125;59.628;17.852;2024-01-10T12:29:12;2.50;99.90
12123;DHT22;6125;59.628;17.852;2024-01-10T12:31:40;2.50;99.90
12123;DHT22;6125;59.628;17.852;2024-01-10T12:34:08;2.50;99.90
12123;DHT22;6125;59.628;17.852;2024-01-10T12:36:37;2.50;99.90
12123;DHT22;6125;59.628;17.852;2024-01-10T12:39:04;2.40;99.90
12123;DHT22;6125;59.628;17.852;2024-01-10T12:41:33;2.50;99.90
12123;DHT22;6125;59.628;17.852;2024-01-10T12:44:02;2.50;99.90
12123;DHT22;6125;59.628;17.852;2024-01-10T12:46:30;2.50;99.90
12123;DHT22;6125;59.628;17.852;2024-01-10T12:48:59;2.50;99.90
12123;DHT22;6125;59.628;17.852;2024-01-10T12:51:27;2.60;99.90
12123;DHT22;6125;59.628;17.852;2024-01-10T12:53:57;2.60;99.90
12123;DHT22;6125;59.628;17.852;2024-01-10T12:56:25;2.70;99.90
12123;DHT22;6125;59.628;17.852;2024-01-10T12:58:53;2.70;99.90
12123;DHT22;6125;59.628;17.852;2024-01-10T13:01:21;2.70;99.90
12123;DHT22;6125;59.628;17.852;2024-01-10T13:03:49;2.70;99.90
12123;DHT22;6125;59.628;17.852;2024-01-10T13:06:16;2.80;99.90
12123;DHT22;6125;59.628;17.852;2024-01-10T13:08:44;2.70;99.90
12123;DHT22;6125;59.628;17.852;2024-01-10T13:11:13;2.80;99.90
12123;DHT22;6125;59.628;17.852;2024-01-10T13:13:40;2.80;99.90
12123;DHT22;6125;59.628;17.852;2024-01-10T13:16:09;2.90;99.90
12123;DHT22;6125;59.628;17.852;2024-01-10T13:18:37;2.90;99.90
12123;DHT22;6125;59.628;17.852;2024-01-10T13:21:04;2.90;99.90
12123;DHT22;6125;59.628;17.852;2024-01-10T13:23:32;2.90;99.90
12123;DHT22;6125;59.628;17.852;2024-01-10T13:26:00;2.80;99.90
12123;DHT22;6125;59.628;17.852;2024-01-10T13:28:29;2.70;99.90
12123;DHT22;6125;59.628;17.852;2024-01-10T13:30:56;2.60;99.90
12123;DHT22;6125;59.628;17.852;2024-01-10T13:33:23;2.60;99.90
12123;DHT22;6125;59.628;17.852;2024-01-10T13:35:52;2.50;99.90
12123;DHT22;6125;59.628;17.852;2024-01-10T13:38:19;2.40;99.90
12123;DHT22;6125;59.628;17.852;2024-01-10T13:40:49;2.30;99.90
12123;DHT22;6125;59.628;17.852;2024-01-10T13:43:16;2.20;99.90
12123;DHT22;6125;59.628;17.852;2024-01-10T13:45:45;2.20;99.90
12123;DHT22;6125;59.628;17.852;2024-01-10T13:48:12;2.10;99.90
12123;DHT22;6125;59.628;17.852;2024-01-10T13:50:39;2.00;99.90
12123;DHT22;6125;59.628;17.852;2024-01-10T13:53:07;1.90;99.90
12123;DHT22;6125;59.628;17.852;2024-01-10T13:55:34;1.90;99.90
12123;DHT22;6125;59.628;17.852;2024-01-10T13:58:01;1.90;99.90
12123;DHT22;6125;59.628;17.852;2024-01-10T14:00:29;1.80;99.90
12123;DHT22;6125;59.628;17.852;2024-01-10T14:02:57;1.80;99.90
12123;DHT22;6125;59.628;17.852;2024-01-10T14:05:26;1.70;99.90
12123;DHT22;6125;59.628;17.852;2024-01-10T14:07:54;1.70;99.90
12123;DHT22;6125;59.628;17.852;2024-01-10T14:10:21;1.70;99.90
12123;DHT22;6125;59.628;17.852;2024-01-10T14:12:49;1.70;99.90
12123;DHT22;6125;59.628;17.852;2024-01-10T14:15:17;1.60;99.90
12123;DHT22;6125;59.628;17.852;2024-01-10T14:17:44;1.60;99.90
12123;DHT22;6125;59.628;17.852;2024-01-10T14:20:12;1.60;99.90
12123;DHT22;6125;59.628;17.852;2024-01-10T14:22:40;1.50;99.90
12123;DHT22;6125;59.628;17.852;2024-01-10T14:25:08;1.50;99.90
12123;DHT22;6125;59.628;17.852;2024-01-10T14:27:37;1.50;99.90
12123;DHT22;6125;59.628;17.852;2024-01-10T14:30:06;1.50;99.90
12123;DHT22;6125;59.628;17.852;2024-01-10T14:32:35;1.50;99.90
12123;DHT22;6125;59.628;17.852;2024-01-10T14:35:03;1.40;99.90
12123;DHT22;6125;59.628;17.852;2024-01-10T14:37:33;1.40;99.90
12123;DHT22;6125;59.628;17.852;2024-01-10T14:40:03;1.40;99.90
12123;DHT22;6125;59.628;17.852;2024-01-10T14:42:32;1.40;99.90
12123;DHT22;6125;59.628;17.852;2024-01-10T14:45:00;1.40;99.90
12123;DHT22;6125;59.628;17.852;2024-01-10T14:47:27;1.30;99.90
12123;DHT22;6125;59.628;17.852;2024-01-10T14:49:55;1.30;99.90
12123;DHT22;6125;59.628;17.852;2024-01-10T14:52:23;1.30;99.90
12123;DHT22;6125;59.628;17.852;2024-01-10T14:54:52;1.30;99.90
12123;DHT22;6125;59.628;17.852;2024-01-10T14:57:19;1.30;99.90
12123;DHT22;6125;59.628;17.852;2024-01-10T14:59:47;1.20;99.90
12123;DHT22;6125;59.628;17.852;2024-01-10T15:02:15;1.20;99.90
12123;DHT22;6125;59.628;17.852;2024-01-10T15:04:44;1.10;99.90
12123;DHT22;6125;59.628;17.852;2024-01-10T15:07:11;1.20;99.90
12123;DHT22;6125;59.628;17.852;2024-01-10T15:09:38;1.20;99.90
12123;DHT22;6125;59.628;17.852;2024-01-10T15:12:07;1.20;99.90
12123;DHT22;6125;59.628;17.852;2024-01-10T15:14:35;1.20;99.90
12123;DHT22;6125;59.628;17.852;2024-01-10T15:17:03;1.10;99.90
12123;DHT22;6125;59.628;17.852;2024-01-10T15:19:33;1.20;99.90
12123;DHT22;6125;59.628;17.852;2024-01-10T15:22:00;1.10;99.90
12123;DHT22;6125;59.628;17.852;2024-01-10T15:24:28;1.10;99.90
12123;DHT22;6125;59.628;17.852;2024-01-10T15:26:55;1.10;99.90
12123;DHT22;6125;59.628;17.852;2024-01-10T15:29:28;1.10;99.90
12123;DHT22;6125;59.628;17.852;2024-01-10T15:31:55;1.10;99.90
12123;DHT22;6125;59.628;17.852;2024-01-10T15:34:23;1.10;99.90
12123;DHT22;6125;59.628;17.852;2024-01-10T15:36:51;1.00;99.90
12123;DHT22;6125;59.628;17.852;2024-01-10T15:39:18;1.10;99.90
12123;DHT22;6125;59.628;17.852;2024-01-10T15:41:47;1.00;99.90
12123;DHT22;6125;59.628;17.852;2024-01-10T15:44:14;1.00;99.90
12123;DHT22;6125;59.628;17.852;2024-01-10T15:46:43;1.00;99.90
12123;DHT22;6125;59.628;17.852;2024-01-10T15:49:10;1.00;99.90
12123;DHT22;6125;59.628;17.852;2024-01-10T15:51:38;1.00;99.90
12123;DHT22;6125;59.628;17.852;2024-01-10T15:54:05;1.00;99.90
12123;DHT22;6125;59.628;17.852;2024-01-10T15:56:32;1.00;99.90
12123;DHT22;6125;59.628;17.852;2024-01-10T15:59:04;1.00;99.90